createdAt,value
2022-09-15T00:00:00.955Z,73.70
2022-09-15T00:02:27.722Z,73.80
2022-09-15T00:04:54.440Z,73.80
2022-09-15T00:07:21.085Z,73.80
2022-09-15T00:09:47.740Z,73.70
2022-09-15T00:12:14.399Z,73.80
2022-09-15T00:14:41.076Z,73.80
2022-09-15T00:17:07.833Z,73.70
2022-09-15T00:19:34.545Z,73.80
2022-09-15T00:22:01.237Z,73.90
2022-09-15T00:24:27.898Z,74.00
2022-09-15T00:26:54.574Z,74.10
2022-09-15T00:29:21.161Z,74.00
2022-09-15T00:31:47.816Z,74.10
2022-09-15T00:34:14.491Z,74.30
2022-09-15T00:36:41.165Z,74.20
2022-09-15T00:39:07.901Z,74.20
2022-09-15T00:41:34.954Z,74.30
2022-09-15T00:44:03.593Z,75.40
2022-09-15T00:46:39.935Z,74.40
2022-09-15T00:49:18.506Z,74.30
2022-09-15T00:51:57.061Z,74.50
2022-09-15T00:54:30.956Z,74.60
2022-09-15T00:57:02.066Z,74.60
2022-09-15T00:59:31.854Z,74.70
2022-09-15T01:02:08.500Z,74.80
2022-09-15T01:04:35.280Z,74.80
2022-09-15T01:07:04.761Z,74.70
2022-09-15T01:09:41.981Z,74.80
2022-09-15T01:12:08.629Z,74.80
2022-09-15T01:14:35.302Z,74.90
2022-09-15T01:17:27.979Z,74.90
2022-09-15T01:20:09.711Z,75.00
2022-09-15T01:23:03.338Z,75.00
2022-09-15T01:25:38.991Z,75.10
2022-09-15T01:28:39.460Z,75.40
2022-09-15T01:32:00.132Z,75.40
2022-09-15T01:34:33.289Z,75.50
2022-09-15T01:37:09.541Z,75.90
2022-09-15T01:39:41.486Z,75.90
2022-09-15T01:42:12.607Z,75.90
2022-09-15T01:45:05.099Z,75.90
2022-09-15T01:47:34.002Z,75.80
2022-09-15T01:50:12.267Z,76.00
2022-09-15T01:52:43.136Z,75.90
2022-09-15T01:55:18.447Z,76.00
2022-09-15T01:57:45.501Z,75.90
2022-09-15T02:00:12.757Z,76.00
2022-09-15T02:03:06.045Z,76.00
2022-09-15T02:05:39.999Z,75.90
2022-09-15T02:08:12.983Z,75.90
2022-09-15T02:10:57.845Z,76.00
2022-09-15T02:13:32.322Z,75.90
2022-09-15T02:16:00.596Z,76.10
2022-09-15T02:18:45.234Z,76.20
2022-09-15T02:21:19.677Z,76.10
2022-09-15T02:23:52.966Z,76.00
2022-09-15T02:26:24.789Z,76.20
2022-09-15T02:28:54.613Z,76.50
2022-09-15T02:31:24.981Z,76.30
2022-09-15T02:33:57.556Z,76.20
2022-09-15T02:36:25.820Z,76.30
2022-09-15T02:39:03.557Z,76.30
2022-09-15T02:41:30.241Z,76.30
2022-09-15T02:43:56.882Z,76.40
2022-09-15T02:46:23.527Z,76.40
2022-09-15T02:48:50.296Z,76.40
2022-09-15T02:51:18.316Z,76.40
2022-09-15T02:53:46.285Z,76.30
2022-09-15T02:56:13.563Z,76.40
2022-09-15T02:58:40.208Z,76.20
2022-09-15T03:01:08.178Z,76.20
2022-09-15T03:03:37.078Z,76.20
2022-09-15T03:06:19.752Z,76.40
2022-09-15T03:08:55.387Z,76.30
2022-09-15T03:11:24.192Z,76.60
2022-09-15T03:13:55.661Z,76.50
2022-09-15T03:16:23.055Z,76.50
2022-09-15T03:18:49.780Z,76.50
2022-09-15T03:21:17.252Z,76.60
2022-09-15T03:23:44.557Z,76.40
2022-09-15T03:26:11.962Z,76.40
2022-09-15T03:28:39.032Z,76.50
2022-09-15T03:31:07.412Z,76.60
2022-09-15T03:33:34.484Z,76.60
2022-09-15T03:36:01.419Z,77.50
2022-09-15T03:38:28.069Z,76.60
2022-09-15T03:41:04.455Z,76.60
2022-09-15T03:43:32.338Z,76.50
2022-09-15T03:45:59.396Z,76.60
2022-09-15T03:48:27.407Z,76.50
2022-09-15T03:50:54.052Z,76.50
2022-09-15T03:53:20.914Z,76.40
2022-09-15T03:55:48.826Z,76.30
2022-09-15T03:58:17.408Z,76.20
2022-09-15T04:00:45.690Z,76.20
2022-09-15T04:03:13.419Z,77.10
2022-09-15T04:05:40.636Z,76.10
2022-09-15T04:08:07.284Z,76.10
2022-09-15T04:10:35.001Z,76.20
2022-09-15T04:13:01.873Z,76.10
2022-09-15T04:15:28.498Z,76.00
2022-09-15T04:17:55.681Z,76.00
2022-09-15T04:20:22.335Z,75.90
2022-09-15T04:22:49.289Z,75.90
2022-09-15T04:25:15.984Z,75.80
2022-09-15T04:27:42.877Z,75.70
2022-09-15T04:30:10.567Z,75.80
2022-09-15T04:32:37.233Z,75.80
2022-09-15T04:35:04.903Z,75.70
2022-09-15T04:37:32.218Z,75.70
2022-09-15T04:39:59.525Z,75.60
2022-09-15T04:42:26.277Z,75.60
2022-09-15T04:44:52.994Z,75.50
2022-09-15T04:47:19.635Z,75.50
2022-09-15T04:49:46.859Z,75.40
2022-09-15T04:52:13.533Z,75.30
2022-09-15T04:54:40.183Z,75.20
2022-09-15T04:57:06.946Z,75.00
2022-09-15T04:59:33.714Z,74.90
2022-09-15T05:02:00.425Z,74.80
2022-09-15T05:04:27.215Z,74.70
2022-09-15T05:06:53.865Z,74.50
2022-09-15T05:09:20.736Z,74.50
2022-09-15T05:11:47.382Z,74.30
2022-09-15T05:14:14.069Z,74.20
2022-09-15T05:16:40.794Z,74.20
2022-09-15T05:19:07.436Z,74.10
2022-09-15T05:21:34.102Z,74.00
2022-09-15T05:24:00.899Z,73.90
2022-09-15T05:26:29.178Z,73.80
2022-09-15T05:28:57.156Z,73.70
2022-09-15T05:31:31.008Z,73.70
2022-09-15T05:33:59.797Z,73.60
2022-09-15T05:36:26.487Z,73.60
2022-09-15T05:38:56.430Z,73.50
2022-09-15T05:41:23.998Z,73.50
2022-09-15T05:43:50.988Z,73.40
2022-09-15T05:46:18.988Z,73.30
2022-09-15T05:48:46.252Z,73.30
2022-09-15T05:51:13.542Z,73.10
2022-09-15T05:53:40.346Z,73.20
2022-09-15T05:56:11.768Z,73.20
2022-09-15T05:58:43.057Z,73.20
2022-09-15T06:01:16.666Z,73.20
2022-09-15T06:03:43.856Z,73.20
2022-09-15T06:06:12.090Z,73.10
2022-09-15T06:08:47.040Z,73.10
2022-09-15T06:11:22.718Z,73.10
2022-09-15T06:13:49.992Z,73.10
2022-09-15T06:16:19.553Z,73.00
2022-09-15T06:18:50.943Z,72.90
2022-09-15T06:21:23.746Z,72.70
2022-09-15T06:23:57.924Z,72.70
2022-09-15T06:26:25.373Z,72.70
2022-09-15T06:28:57.843Z,72.50
2022-09-15T06:31:26.180Z,72.40
2022-09-15T06:33:57.497Z,72.40
2022-09-15T06:36:29.440Z,72.30
2022-09-15T06:38:56.878Z,72.30
2022-09-15T06:41:23.674Z,72.30
2022-09-15T06:43:52.084Z,72.30
2022-09-15T06:46:21.335Z,72.30
2022-09-15T06:48:48.605Z,72.50
2022-09-15T06:51:17.824Z,72.40
2022-09-15T06:53:45.337Z,72.00
2022-09-15T06:56:14.564Z,71.90
2022-09-15T06:58:42.733Z,71.50
2022-09-15T07:01:12.514Z,71.60
2022-09-15T07:03:41.547Z,70.40
2022-09-15T07:06:09.931Z,70.80
2022-09-15T07:08:36.560Z,70.50
2022-09-15T07:11:04.089Z,70.60
2022-09-15T07:13:31.143Z,71.00
2022-09-15T07:16:00.466Z,70.90
2022-09-15T07:18:27.369Z,71.00
2022-09-15T07:21:03.145Z,71.00
2022-09-15T07:23:30.069Z,71.00
2022-09-15T07:26:11.500Z,71.00
2022-09-15T07:28:39.268Z,71.10
2022-09-15T07:31:07.389Z,71.20
2022-09-15T07:33:35.354Z,71.30
2022-09-15T07:36:03.177Z,71.00
2022-09-15T07:38:29.822Z,70.90
2022-09-15T07:41:06.673Z,70.60
2022-09-15T07:43:33.625Z,70.10
2022-09-15T07:46:01.495Z,70.10
2022-09-15T07:48:28.453Z,70.00
2022-09-15T07:50:55.215Z,70.10
2022-09-15T07:53:22.080Z,69.60
2022-09-15T07:55:53.327Z,69.10
2022-09-15T07:58:21.104Z,68.60
2022-09-15T08:00:47.854Z,68.60
2022-09-15T08:03:15.568Z,68.30
2022-09-15T08:05:45.417Z,68.40
2022-09-15T08:08:12.678Z,68.40
2022-09-15T08:10:41.353Z,68.40
2022-09-15T08:13:08.452Z,67.40
2022-09-15T08:15:38.698Z,67.50
2022-09-15T08:18:05.952Z,67.20
2022-09-15T08:20:33.385Z,65.90
2022-09-15T08:23:00.095Z,66.20
2022-09-15T08:25:26.893Z,66.70
2022-09-15T08:27:55.003Z,65.80
2022-09-15T08:30:22.636Z,65.60
2022-09-15T08:32:50.326Z,65.60
2022-09-15T08:35:17.611Z,65.80
2022-09-15T08:37:44.272Z,65.00
2022-09-15T08:40:26.687Z,65.40
2022-09-15T08:42:57.533Z,65.60
2022-09-15T08:45:31.730Z,65.80
2022-09-15T08:48:02.850Z,65.80
2022-09-15T08:50:38.908Z,67.00
2022-09-15T08:53:12.862Z,66.00
2022-09-15T08:56:01.706Z,66.10
2022-09-15T08:58:34.443Z,66.20
2022-09-15T09:01:26.485Z,66.70
2022-09-15T09:04:14.546Z,66.90
2022-09-15T09:07:12.374Z,67.00
2022-09-15T09:09:45.680Z,67.10
2022-09-15T09:12:32.452Z,66.90
2022-09-15T09:15:33.790Z,66.60
2022-09-15T09:18:18.582Z,66.70
2022-09-15T09:21:06.035Z,67.30
2022-09-15T09:23:33.728Z,68.00
2022-09-15T09:26:02.134Z,68.40
2022-09-15T09:28:42.150Z,68.40
2022-09-15T09:31:18.536Z,68.30
2022-09-15T09:34:10.333Z,67.80
2022-09-15T09:36:37.422Z,67.60
2022-09-15T09:39:04.729Z,67.30
2022-09-15T09:41:36.392Z,66.10
2022-09-15T09:44:06.639Z,67.20
2022-09-15T09:46:34.426Z,65.30
2022-09-15T09:49:29.403Z,65.10
2022-09-15T09:52:01.395Z,65.30
2022-09-15T09:54:29.173Z,65.30
2022-09-15T09:57:17.236Z,64.90
2022-09-15T09:59:48.725Z,64.40
2022-09-15T10:02:18.808Z,63.70
2022-09-15T10:04:48.522Z,63.20
2022-09-15T10:07:18.054Z,62.80
2022-09-15T10:09:53.677Z,62.50
2022-09-15T10:12:25.173Z,61.50
2022-09-15T10:14:53.077Z,62.20
2022-09-15T10:17:37.413Z,62.50
2022-09-15T10:20:06.950Z,62.50
2022-09-15T10:22:40.212Z,61.70
2022-09-15T10:25:21.607Z,62.40
2022-09-15T10:28:12.211Z,62.20
2022-09-15T10:30:55.387Z,61.40
2022-09-15T10:33:36.774Z,61.60
2022-09-15T10:36:18.605Z,59.30
2022-09-15T10:39:06.018Z,59.90
2022-09-15T10:41:37.625Z,59.90
2022-09-15T10:44:19.546Z,58.80
2022-09-15T10:46:53.627Z,59.40
2022-09-15T10:49:38.945Z,59.10
2022-09-15T10:52:16.524Z,57.90
2022-09-15T10:54:58.069Z,58.60
2022-09-15T10:57:39.870Z,58.70
2022-09-15T11:00:22.652Z,57.80
2022-09-15T11:03:07.888Z,57.50
2022-09-15T11:06:00.175Z,55.40
2022-09-15T11:08:41.917Z,55.60
2022-09-15T11:11:22.522Z,55.00
2022-09-15T11:14:26.277Z,53.90
2022-09-15T11:17:07.578Z,54.80
2022-09-15T11:19:46.153Z,55.00
2022-09-15T11:22:15.600Z,52.10
2022-09-15T11:24:59.149Z,51.50
2022-09-15T11:27:41.212Z,52.00
2022-09-15T11:30:16.351Z,49.70
2022-09-15T11:33:04.479Z,52.20
2022-09-15T11:36:08.633Z,52.10
2022-09-15T11:38:57.580Z,52.40
2022-09-15T11:41:36.999Z,52.60
2022-09-15T11:44:25.181Z,49.70
2022-09-15T11:47:16.235Z,50.50
2022-09-15T11:49:46.197Z,50.30
2022-09-15T11:52:42.868Z,48.30
2022-09-15T11:55:24.824Z,46.90
2022-09-15T11:58:16.332Z,46.20
2022-09-15T12:00:55.724Z,44.90
2022-09-15T12:03:43.151Z,44.70
2022-09-15T12:06:12.748Z,44.90
2022-09-15T12:08:53.447Z,44.70
2022-09-15T12:11:23.081Z,45.40
2022-09-15T12:13:50.767Z,45.60
2022-09-15T12:16:18.691Z,45.80
2022-09-15T12:19:03.117Z,46.20
2022-09-15T12:21:49.020Z,47.50
2022-09-15T12:24:34.269Z,47.60
2022-09-15T12:27:02.295Z,47.90
2022-09-15T12:29:38.098Z,47.40
2022-09-15T12:32:21.794Z,46.70
2022-09-15T12:35:30.096Z,44.60
2022-09-15T12:38:00.457Z,44.10
2022-09-15T12:40:30.075Z,45.30
2022-09-15T12:42:57.433Z,46.00
2022-09-15T12:45:33.768Z,46.40
2022-09-15T12:48:25.624Z,47.00
2022-09-15T12:50:55.830Z,47.40
2022-09-15T12:53:26.842Z,47.80
2022-09-15T12:55:57.189Z,47.90
2022-09-15T12:58:33.241Z,48.10
2022-09-15T13:01:36.778Z,48.20
2022-09-15T13:04:03.469Z,48.80
2022-09-15T13:06:35.049Z,49.80
2022-09-15T13:09:01.573Z,50.10
2022-09-15T13:11:37.201Z,50.50
2022-09-15T13:14:04.091Z,50.60
2022-09-15T13:16:48.731Z,50.90
2022-09-15T13:19:52.852Z,51.10
2022-09-15T13:22:32.013Z,51.50
2022-09-15T13:25:10.804Z,51.80
2022-09-15T13:27:38.724Z,51.90
2022-09-15T13:30:24.133Z,52.20
2022-09-15T13:33:04.009Z,52.40
2022-09-15T13:35:52.596Z,52.40
2022-09-15T13:38:52.064Z,52.10
2022-09-15T13:41:42.281Z,51.40
2022-09-15T13:44:32.445Z,51.90
2022-09-15T13:47:19.935Z,52.20
2022-09-15T13:49:55.708Z,52.00
2022-09-15T13:52:46.520Z,52.50
2022-09-15T13:55:26.194Z,52.70
2022-09-15T14:00:53.543Z,51.30
2022-09-15T14:03:47.124Z,50.80
2022-09-15T14:06:40.977Z,50.60
2022-09-15T14:09:26.626Z,51.40
2022-09-15T14:12:09.530Z,52.70
2022-09-15T14:14:46.453Z,52.50
2022-09-15T14:17:28.718Z,52.80
2022-09-15T14:19:58.092Z,52.30
2022-09-15T14:22:29.264Z,51.60
2022-09-15T14:24:57.209Z,51.60
2022-09-15T14:27:30.425Z,51.20
2022-09-15T14:30:01.010Z,51.30
2022-09-15T14:32:31.426Z,50.60
2022-09-15T14:35:00.514Z,50.70
2022-09-15T14:37:29.301Z,50.60
2022-09-15T14:39:58.402Z,50.60
2022-09-15T14:42:32.332Z,50.60
2022-09-15T14:48:02.469Z,50.30
2022-09-15T14:50:32.806Z,49.80
2022-09-15T14:53:23.030Z,49.80
2022-09-15T14:55:55.665Z,49.90
2022-09-15T14:58:45.944Z,50.10
2022-09-15T15:01:27.030Z,50.00
2022-09-15T15:04:12.296Z,50.00
2022-09-15T15:06:51.353Z,50.00
2022-09-15T15:09:43.950Z,50.40
2022-09-15T15:12:27.645Z,50.40
2022-09-15T15:14:55.586Z,50.80
2022-09-15T15:17:47.852Z,51.10
2022-09-15T15:20:22.667Z,51.50
2022-09-15T15:23:18.461Z,52.00
2022-09-15T15:25:46.982Z,51.70
2022-09-15T15:28:29.851Z,52.00
2022-09-15T15:31:08.002Z,52.20
2022-09-15T15:33:34.821Z,52.00
2022-09-15T15:36:04.630Z,52.20
2022-09-15T15:38:35.441Z,51.60
2022-09-15T15:41:05.054Z,52.10
2022-09-15T15:43:31.883Z,52.50
2022-09-15T15:46:04.449Z,53.00
2022-09-15T15:48:36.850Z,53.40
2022-09-15T15:51:06.580Z,53.40
2022-09-15T15:53:34.263Z,53.40
2022-09-15T15:56:01.131Z,53.20
2022-09-15T15:58:27.801Z,53.20
2022-09-15T16:00:59.242Z,53.40
2022-09-15T16:03:26.110Z,54.00
2022-09-15T16:05:56.782Z,53.80
2022-09-15T16:08:32.513Z,53.70
2022-09-15T16:11:01.608Z,54.20
2022-09-15T16:13:29.038Z,54.20
2022-09-15T16:15:57.859Z,55.20
2022-09-15T16:18:24.815Z,54.90
2022-09-15T16:20:52.073Z,54.70
2022-09-15T16:23:21.142Z,54.30
2022-09-15T16:25:59.434Z,53.90
2022-09-15T16:28:26.198Z,54.30
2022-09-15T16:30:52.833Z,54.20
2022-09-15T16:33:19.751Z,54.40
2022-09-15T16:35:54.987Z,54.40
2022-09-15T16:38:25.305Z,54.60
2022-09-15T16:40:52.668Z,55.10
2022-09-15T16:43:21.524Z,55.10
2022-09-15T16:45:49.483Z,55.30
2022-09-15T16:48:16.542Z,56.00
2022-09-15T16:53:31.004Z,55.40
2022-09-15T16:55:57.863Z,55.30
2022-09-15T16:58:24.509Z,55.50
2022-09-15T17:00:52.517Z,55.40
2022-09-15T17:03:21.627Z,55.60
2022-09-15T17:05:50.538Z,55.90
2022-09-15T17:08:19.112Z,56.10
2022-09-15T17:10:46.575Z,56.30
2022-09-15T17:13:23.943Z,56.30
2022-09-15T17:15:55.880Z,56.50
2022-09-15T17:18:23.219Z,56.70
2022-09-15T17:20:50.778Z,56.90
2022-09-15T17:23:17.411Z,57.30
2022-09-15T17:25:48.992Z,57.30
2022-09-15T17:28:15.697Z,57.60
2022-09-15T17:30:42.613Z,58.30
2022-09-15T17:33:13.204Z,58.50
2022-09-15T17:35:40.246Z,58.70
2022-09-15T17:38:07.432Z,58.80
2022-09-15T17:40:35.054Z,58.90
2022-09-15T17:43:02.461Z,59.10
2022-09-15T17:45:35.257Z,59.10
2022-09-15T17:48:03.005Z,59.50
2022-09-15T17:50:31.496Z,59.40
2022-09-15T17:52:58.186Z,59.40
2022-09-15T17:55:33.191Z,59.50
2022-09-15T17:58:02.048Z,59.50
2022-09-15T18:00:32.080Z,59.70
2022-09-15T18:03:02.145Z,59.60
2022-09-15T18:05:34.909Z,59.80
2022-09-15T18:08:04.886Z,59.70
2022-09-15T18:10:33.843Z,59.60
2022-09-15T18:13:01.269Z,60.00
2022-09-15T18:15:30.348Z,61.70
2022-09-15T18:18:00.460Z,61.80
2022-09-15T18:20:29.412Z,63.40
2022-09-15T18:22:56.910Z,63.60
2022-09-15T18:25:25.478Z,67.50
2022-09-15T18:27:52.456Z,65.80
2022-09-15T18:30:20.164Z,66.50
2022-09-15T18:32:47.391Z,67.20
2022-09-15T18:35:18.681Z,68.00
2022-09-15T18:37:47.013Z,67.40
2022-09-15T18:40:16.812Z,67.70
2022-09-15T18:42:44.146Z,67.40
2022-09-15T18:45:13.837Z,67.80
2022-09-15T18:47:42.430Z,67.80
2022-09-15T18:50:11.234Z,67.80
2022-09-15T18:52:40.194Z,67.80
2022-09-15T18:55:09.082Z,68.30
2022-09-15T18:57:36.611Z,68.50
2022-09-15T19:00:19.149Z,68.80
2022-09-15T19:02:46.505Z,68.90
2022-09-15T19:05:16.557Z,68.90
2022-09-15T19:07:44.611Z,69.40
2022-09-15T19:10:12.628Z,69.60
2022-09-15T19:12:39.985Z,69.70
2022-09-15T19:15:11.995Z,70.00
2022-09-15T19:17:39.638Z,70.10
2022-09-15T19:20:08.278Z,70.20
2022-09-15T19:22:35.737Z,70.30
2022-09-15T19:25:03.236Z,70.40
2022-09-15T19:27:30.162Z,70.40
2022-09-15T19:29:56.813Z,71.40
2022-09-15T19:32:23.891Z,70.50
2022-09-15T19:34:50.816Z,70.60
2022-09-15T19:37:20.308Z,71.10
2022-09-15T19:39:48.536Z,71.30
2022-09-15T19:44:47.885Z,71.50
2022-09-15T19:47:14.917Z,71.60
2022-09-15T19:49:41.540Z,71.80
2022-09-15T19:52:08.464Z,71.70
2022-09-15T19:54:35.177Z,72.20
2022-09-15T19:57:02.166Z,71.80
2022-09-15T19:59:31.370Z,72.20
2022-09-15T20:01:59.229Z,72.30
2022-09-15T20:04:25.989Z,72.30
2022-09-15T20:06:52.627Z,72.30
2022-09-15T20:09:19.437Z,72.60
2022-09-15T20:11:46.352Z,72.90
2022-09-15T20:14:13.536Z,73.00
2022-09-15T20:16:40.413Z,73.10
2022-09-15T20:19:07.144Z,73.40
2022-09-15T20:21:49.790Z,73.30
2022-09-15T20:24:19.568Z,73.30
2022-09-15T20:26:46.420Z,73.50
2022-09-15T20:29:13.294Z,73.40
2022-09-15T20:31:40.416Z,73.30
2022-09-15T20:34:07.129Z,73.40
2022-09-15T20:36:36.581Z,73.60
2022-09-15T20:39:08.770Z,73.30
2022-09-15T20:41:35.568Z,73.40
2022-09-15T20:44:02.446Z,73.80
2022-09-15T20:46:29.367Z,73.90
2022-09-15T20:48:56.049Z,73.80
2022-09-15T20:51:29.429Z,73.90
2022-09-15T20:53:57.532Z,74.00
2022-09-15T20:56:26.328Z,73.90
2022-09-15T20:58:54.496Z,73.90
2022-09-15T21:01:26.940Z,73.70
2022-09-15T21:03:55.303Z,73.80
2022-09-15T21:06:25.197Z,73.90
2022-09-15T21:08:53.070Z,73.90
2022-09-15T21:11:21.120Z,73.90
2022-09-15T21:13:48.507Z,73.90
2022-09-15T21:16:18.532Z,74.00
2022-09-15T21:18:45.773Z,73.90
2022-09-15T21:21:15.276Z,74.20
2022-09-15T21:23:50.258Z,74.30
2022-09-15T21:26:25.502Z,74.50
2022-09-15T21:28:53.381Z,74.20
2022-09-15T21:31:27.222Z,74.30
2022-09-15T21:33:54.918Z,74.60
2022-09-15T21:36:24.541Z,74.90
2022-09-15T21:38:54.097Z,74.60
2022-09-15T21:41:23.300Z,74.60
2022-09-15T21:43:58.905Z,74.70
2022-09-15T21:46:28.510Z,75.60
2022-09-15T21:48:57.473Z,74.60
2022-09-15T21:51:25.858Z,74.80
2022-09-15T21:53:54.463Z,75.70
2022-09-15T21:56:22.123Z,74.90
2022-09-15T21:58:49.244Z,75.00
2022-09-15T22:01:22.046Z,75.10
2022-09-15T22:03:54.092Z,76.50
2022-09-15T22:06:27.401Z,75.80
2022-09-15T22:08:55.102Z,76.00
2022-09-15T22:11:22.359Z,75.90
2022-09-15T22:13:49.322Z,76.00
2022-09-15T22:16:18.425Z,76.10
2022-09-15T22:18:45.467Z,76.00
2022-09-15T22:21:14.929Z,76.20
2022-09-15T22:23:42.573Z,75.90
2022-09-15T22:26:13.246Z,75.80
2022-09-15T22:28:40.584Z,75.90
2022-09-15T22:31:10.198Z,76.80
2022-09-15T22:33:37.675Z,75.80
2022-09-15T22:36:05.980Z,76.00
2022-09-15T22:38:32.622Z,76.00
2022-09-15T22:41:05.092Z,76.20
2022-09-15T22:43:32.096Z,76.00
2022-09-15T22:45:59.068Z,76.10
2022-09-15T22:48:25.732Z,76.20
2022-09-15T22:50:52.393Z,76.20
2022-09-15T22:53:19.146Z,76.10
2022-09-15T22:55:45.855Z,76.10
2022-09-15T22:58:12.490Z,76.10
2022-09-15T23:00:39.261Z,76.10
2022-09-15T23:03:07.107Z,76.00
2022-09-15T23:05:34.423Z,76.10
2022-09-15T23:08:01.502Z,76.20
2022-09-15T23:10:29.489Z,76.10
2022-09-15T23:12:58.760Z,76.00
2022-09-15T23:15:25.410Z,76.10
2022-09-15T23:17:52.279Z,76.10
2022-09-15T23:20:19.042Z,76.10
2022-09-15T23:22:45.797Z,76.00
2022-09-15T23:25:12.914Z,75.90
2022-09-15T23:27:39.551Z,75.80
2022-09-15T23:30:06.562Z,76.00
2022-09-15T23:32:33.227Z,76.10
2022-09-15T23:34:59.845Z,76.10
2022-09-15T23:37:26.524Z,76.30
2022-09-15T23:39:53.186Z,76.10
2022-09-15T23:42:19.837Z,76.40
2022-09-15T23:44:46.529Z,76.50
2022-09-15T23:47:13.236Z,76.50
2022-09-15T23:49:40.051Z,76.50
2022-09-15T23:52:06.666Z,76.70
2022-09-15T23:54:33.359Z,76.70
2022-09-15T23:57:00.007Z,76.80
2022-09-15T23:59:26.621Z,77.00
